Holland, Minnesota
Current Conditions -  °F | °C
As of 2:54 PM on Sunday 21 Dec 2014 (Local Time) from KPQN Reporting Station
Light Snow Light Snow  
Wind Chill: -4°   Ceiling: 100
Heat Index:   Visibility: 0mi
Dew Point:   Wind: 17mph
Humidity: 93%   Direction: 190°S
Pressure: 29.6"   Gusts: NA
Location:  44.09°N, 96.19°W
Report Text: KPQN 212054Z AUTO 19015KT M1/4SM -SN OVC001 02/01 A2960 RMK AO2
Loading
Personal Weather Stations






























Interactive Weather Map New forecast layout! Learn more

10-Day Weather Forecast

Advertisements
Track Severe Weather on mobile